Latest Weather Observations for St George

IDQ60801

Issued at 11:42 am EST Saturday 22 September 2018 (issued every 10 minutes, with the page automatically refreshed every 10 minutes)

About weather observations | Map of weather stations | Latest weather observations for QLD | Other Formats
Station Details ID: 043109 Name: ST GEORGE AIRPORT Lat: -28.05 Lon: 148.59 Height: 198.5 m
Data from the previous 72 hours. | See also: Recent months at St George
Date/Time
EST
Temp
°C
App
Temp
°C
Dew
Point
°C
Rel
Hum
%
Delta-T
°C
Wind Press
QNH
hPa
Press
MSL
hPa
Rain since
9am
mm
Dir  Spd
km/h
Gust
km/h
Spd
kts
Gust
kts
22/11:30am 23.6 19.9 2.4 25 10.1 NE 11 20 6 11 1026.8 1026.3 0.0
22/11:00am 23.5 19.3 4.0 28 9.6 NNE 15 28 8 15 1027.3 1026.8 0.0
22/10:30am 23.2 19.5 6.1 33 8.8 NNE 15 24 8 13 1027.4 1026.9 0.0
22/10:00am 20.9 16.1 5.7 37 7.6 N 20 30 11 16 1027.7 1027.2 0.0
22/09:30am 20.8 15.5 6.7 40 7.2 N 24 35 13 19 1027.9 1027.4 0.0
22/09:00am 19.8 15.3 6.9 43 6.5 N 20 33 11 18 1027.9 1027.4 0.0
22/08:30am 18.7 13.3 6.5 45 6.1 N 24 32 13 17 1028.1 1027.6 0.0
22/08:00am 17.6 12.6 6.5 48 5.5 NNE 22 33 12 18 1028.1 1027.6 0.0
22/07:30am 15.3 11.4 3.5 45 5.4 NNE 13 20 7 11 1027.9 1027.4 0.0
22/07:00am 12.2 8.4 -0.6 41 5.2 NNE 9 13 5 7 1027.6 1027.1 0.0
22/06:30am 9.1 5.6 -1.6 47 4.1 NE 7 11 4 6 1027.1 1026.6 0.0
22/06:00am 6.4 2.3 -2.7 52 3.3 NE 9 11 5 6 1026.6 1026.2 0.0
22/05:30am 6.5 2.8 -3.2 50 3.5 ENE 7 7 4 4 1026.3 1025.9 0.0
22/05:00am 7.3 5.0 -2.7 49 3.7 CALM 0 0 0 0 1025.9 1025.5 0.0
22/04:30am 7.1 3.6 -2.6 50 3.6 SE 6 7 3 4 1025.5 1025.1 0.0
22/04:00am 8.2 4.6 -3.3 44 4.2 ESE 6 7 3 4 1025.1 1024.7 0.0
22/03:30am 9.8 5.9 -4.2 37 5.1 ESE 7 9 4 5 1025.0 1024.6 0.0
22/03:00am 8.8 5.0 -3.4 42 4.5 ESE 7 9 4 5 1024.9 1024.5 0.0
22/02:30am 8.6 4.9 -2.6 45 4.2 ESE 7 9 4 5 1024.9 1024.5 0.0
22/02:00am 8.5 5.0 -1.6 49 3.9 ESE 7 9 4 5 1025.2 1024.8 0.0
22/01:30am 8.8 5.5 -1.3 49 3.9 SE 6 7 3 4 1025.4 1025.0 0.0
22/01:00am 8.8 5.6 -0.8 51 3.8 S 6 7 3 4 1025.5 1025.1 0.0
22/12:30am 9.0 6.6 -2.9 43 4.5 CALM 0 0 0 0 1025.7 1025.3 0.0
22/12:00am 9.2 6.9 -2.1 45 4.3 CALM 0 0 0 0 1025.8 1025.4 0.0
 
Date/Time
EST
Temp
°C
App
Temp
°C
Dew
Point
°C
Rel
Hum
%
Delta-T
°C
Wind Press
QNH
hPa
Press
MSL
hPa
Rain since
9am
mm
Dir  Spd
km/h
Gust
km/h
Spd
kts
Gust
kts
21/11:30pm 9.9 7.6 -2.4 42 4.7 CALM 0 0 0 0 1025.8 1025.4 0.0
21/11:00pm 10.5 8.2 -2.5 40 5.0 CALM 0 0 0 0 1025.8 1025.4 0.0
21/10:30pm 10.9 8.5 -3.2 37 5.4 CALM 0 0 0 0 1025.9 1025.5 0.0
21/10:00pm 11.5 9.1 -3.0 36 5.5 CALM 0 0 0 0 1026.0 1025.6 0.0
21/09:30pm 12.1 8.9 -3.7 33 6.0 SSW 4 6 2 3 1026.0 1025.6 0.0
21/09:00pm 12.8 9.7 -3.0 33 6.1 SSW 4 6 2 3 1026.0 1025.6 0.0
21/08:30pm 14.0 10.4 -3.3 30 6.8 S 6 6 3 3 1025.8 1025.4 0.0
21/08:00pm 14.3 10.6 -4.9 26 7.3 SSW 6 6 3 3 1025.4 1025.0 0.0
21/07:30pm 15.4 12.9 -4.0 26 7.6 CALM 0 0 0 0 1024.9 1024.5 0.0
21/07:00pm 16.7 13.3 -5.1 22 8.4 SE 4 6 2 3 1024.5 1024.1 0.0
21/06:30pm 19.0 15.0 -7.4 16 10.0 ESE 6 7 3 4 1024.1 1023.7 0.0
21/06:00pm 20.8 16.8 -5.9 16 10.6 SE 7 11 4 6 1024.0 1023.5 0.0
21/05:30pm 23.0 18.0 -7.9 12 12.1 ESE 11 17 6 9 1023.7 1023.2 0.0
21/05:00pm 23.6 17.8 -8.5 11 12.5 SE 15 20 8 11 1023.5 1023.0 0.0
21/04:30pm 24.2 18.8 -8.1 11 12.8 SE 13 17 7 9 1023.3 1022.8 0.0
21/04:00pm 24.1 17.6 -8.2 11 12.7 SE 19 26 10 14 1023.0 1022.5 0.0
21/03:30pm 24.3 18.9 -8.0 11 12.8 ESE 13 24 7 13 1023.0 1022.5 0.0
21/03:00pm 24.0 18.6 -8.2 11 12.7 SE 13 24 7 13 1023.3 1022.8 0.0
21/02:30pm 23.7 17.6 -7.4 12 12.4 ESE 17 22 9 12 1023.4 1022.9 0.0
21/02:00pm 23.6 18.3 -7.4 12 12.3 ENE 13 20 7 11 1023.7 1023.2 0.0
21/01:30pm 23.8 18.2 -6.2 13 12.3 SE 15 26 8 14 1024.0 1023.5 0.0
21/01:00pm 22.5 17.3 -6.3 14 11.6 SE 13 20 7 11 1024.6 1024.2 0.0
21/12:30pm 22.4 17.7 -5.5 15 11.4 E 11 20 6 11 1024.9 1024.5 0.0
21/12:00pm 21.5 15.3 -5.3 16 10.8 ESE 19 24 10 13 1025.4 1025.0 0.0
21/11:30am 21.5 15.6 -5.3 16 10.9 E 17 30 9 16 1025.9 1025.5 0.0
21/11:00am 20.5 14.2 -6.1 16 10.5 E 19 28 10 15 1026.5 1026.1 0.0
21/10:30am 20.7 14.4 -6.0 16 10.6 E 19 33 10 18 1026.8 1026.3 0.0
21/10:00am 19.9 13.6 -4.4 19 9.9 E 20 28 11 15 1026.9 1026.4 0.0
21/09:30am 18.9 12.5 -5.2 19 9.6 E 20 30 11 16 1027.2 1026.7 0.0
21/09:00am 17.9 11.1 -4.7 21 8.9 SE 22 30 12 16 1027.1 1026.6 0.0
21/08:30am 17.0 10.7 -3.7 24 8.3 SE 20 28 11 15 1026.5 1026.1 0.0
21/08:00am 14.9 8.2 -4.4 26 7.4 SE 22 26 12 14 1026.3 1025.9 0.0
21/07:30am 13.3 7.5 -4.3 29 6.7 SE 17 22 9 12 1026.2 1025.8 0.0
21/07:00am 11.7 6.7 -4.0 33 5.9 SE 13 19 7 10 1025.8 1025.4 0.0
21/06:30am 8.4 4.3 -3.1 44 4.3 SSE 9 9 5 5 1025.6 1025.2 0.0
21/06:00am 6.7 2.9 -3.5 48 3.6 SSE 7 9 4 5 1025.0 1024.6 0.0
21/05:30am 7.0 3.2 -3.8 46 3.9 S 7 7 4 4 1024.7 1024.3 0.0
21/05:00am 7.3 3.6 -4.1 44 4.0 S 6 7 3 4 1024.5 1024.1 0.0
21/04:30am 7.6 4.0 -3.6 45 4.1 S 6 7 3 4 1024.0 1023.5 0.0
21/04:00am 6.8 3.2 -3.4 48 3.7 SSW 6 7 3 4 1023.9 1023.4 0.0
21/03:30am 7.2 4.7 -4.2 44 4.1 CALM 0 0 0 0 1023.8 1023.3 0.0
21/03:00am 8.7 6.3 -2.9 44 4.3 CALM 0 0 0 0 1023.8 1023.3 0.0
21/02:30am 8.9 5.0 -4.6 38 4.9 SSW 7 9 4 5 1023.6 1023.1 0.0
21/02:00am 9.1 4.8 -4.4 38 4.9 SSW 9 13 5 7 1023.6 1023.1 0.0
21/01:30am 10.1 5.6 -3.6 38 5.1 SSW 11 13 6 7 1023.7 1023.2 0.0
21/01:00am 9.6 5.3 -4.4 37 5.1 SSW 9 11 5 6 1023.8 1023.3 0.0
21/12:30am 10.5 6.6 -5.1 33 5.7 S 7 11 4 6 1024.0 1023.5 0.0
21/12:00am 11.1 6.7 -5.4 31 6.0 SSE 9 13 5 7 1024.0 1023.5 0.0
 
Date/Time
EST
Temp
°C
App
Temp
°C
Dew
Point
°C
Rel
Hum
%
Delta-T
°C
Wind Press
QNH
hPa
Press
MSL
hPa
Rain since
9am
mm
Dir  Spd
km/h
Gust
km/h
Spd
kts
Gust
kts
20/11:30pm 11.8 7.5 -5.2 30 6.2 SSW 9 11 5 6 1024.0 1023.5 0.0
20/11:00pm 12.2 7.8 -5.7 28 6.5 S 9 11 5 6 1024.0 1023.5 0.0
20/10:30pm 12.7 7.9 -5.8 27 6.8 S 11 13 6 7 1024.0 1023.5 0.0
20/10:00pm 12.9 8.5 -6.1 26 6.9 S 9 11 5 6 1023.8 1023.3 0.0
20/09:30pm 13.6 9.2 -6.0 25 7.2 SSW 9 11 5 6 1023.8 1023.3 0.0
20/09:00pm 13.6 8.4 -6.0 25 7.2 SSW 13 15 7 8 1023.5 1023.0 0.0
20/08:30pm 14.1 9.4 -4.6 27 7.2 SSW 11 13 6 7 1023.1 1022.6 0.0
20/08:00pm 14.7 10.0 -5.1 25 7.5 SSW 11 13 6 7 1022.7 1022.2 0.0
20/07:30pm 15.3 10.9 -6.3 22 8.1 S 9 11 5 6 1022.1 1021.6 0.0
20/07:00pm 15.9 11.1 -6.4 21 8.3 S 11 15 6 8 1021.7 1021.2 0.0
20/06:30pm 17.3 11.7 -6.5 19 9.1 SSW 15 22 8 12 1021.1 1020.7 0.0
20/06:00pm 17.9 11.9 -6.7 18 9.3 SSW 17 30 9 16 1020.6 1020.2 0.0
20/05:30pm 19.3 12.2 -7.9 15 10.3 SSW 22 35 12 19 1020.2 1019.8 0.0
20/05:00pm 20.0 12.1 -8.3 14 10.7 SSW 26 33 14 18 1019.6 1019.1 0.0
20/04:30pm 20.5 12.3 -7.9 14 10.9 SSW 28 37 15 20 1019.3 1018.8 0.0
20/04:00pm 21.0 13.2 -7.5 14 11.0 SSW 26 39 14 21 1019.1 1018.6 0.0
20/03:30pm 21.6 13.5 -7.0 14 11.3 SSW 28 43 15 23 1018.9 1018.4 0.0
20/03:00pm 21.8 15.2 -6.8 14 11.3 SW 20 39 11 21 1018.9 1018.4 0.0
20/02:30pm 21.1 13.7 -7.4 14 11.1 SSW 24 33 13 18 1018.9 1018.4 0.0
20/02:00pm 21.2 13.0 -7.3 14 11.1 SSW 28 39 15 21 1019.0 1018.5 0.0
20/01:30pm 20.7 12.9 -7.7 14 10.9 S 26 39 14 21 1019.3 1018.8 0.0
20/01:00pm 20.6 13.3 -6.1 16 10.6 SSW 24 35 13 19 1019.7 1019.3 0.0
20/12:30pm 20.7 12.7 -6.0 16 10.6 SSW 28 46 15 25 1019.9 1019.5 0.0
20/12:00pm 20.0 11.9 -6.5 16 10.3 SW 28 44 15 24 1020.2 1019.8 0.0
20/11:30am 19.6 11.9 -6.1 17 10.1 SSW 26 41 14 22 1020.6 1020.2 0.0
20/11:00am 19.1 11.5 -5.7 18 9.7 SSW 26 41 14 22 1020.8 1020.4 0.0
20/10:30am 18.6 10.6 -5.4 19 9.5 SSW 28 39 15 21 1021.0 1020.6 0.0
20/10:00am 18.1 10.8 -5.9 19 9.3 S 24 35 13 19 1020.9 1020.5 0.0
20/09:30am 17.5 9.9 -5.7 20 9.0 S 26 39 14 21 1020.9 1020.5 0.0
20/09:00am 16.8 8.8 -5.6 21 8.6 S 28 35 15 19 1020.8 1020.4 0.0
20/08:30am 15.8 9.0 -4.7 24 8.0 S 22 32 12 17 1020.6 1020.2 0.0
20/08:00am 14.9 7.7 -4.9 25 7.6 SSW 24 32 13 17 1020.2 1019.8 0.0
20/07:30am 13.7 7.5 -4.5 28 6.9 SW 19 24 10 13 1019.7 1019.3 0.0
20/07:00am 12.3 5.9 -4.8 30 6.4 SW 20 26 11 14 1019.1 1018.6 0.0
20/06:30am 11.5 5.3 -4.6 32 6.0 SW 19 24 10 13 1018.7 1018.2 0.0
20/06:00am 11.3 5.9 -4.8 32 5.9 SW 15 20 8 11 1018.1 1017.6 0.0
20/05:30am 12.0 6.6 -4.2 32 6.1 SW 15 19 8 10 1017.7 1017.2 0.0
20/05:00am 11.9 6.9 -4.7 31 6.2 SW 13 15 7 8 1017.1 1016.6 0.0
20/04:30am 12.9 7.5 -4.2 30 6.5 SW 15 19 8 10 1016.9 1016.4 0.0
20/04:00am 13.3 7.5 -4.3 29 6.7 SW 17 20 9 11 1016.5 1016.0 0.0
20/03:30am 13.9 8.1 -4.3 28 7.0 SW 17 22 9 12 1015.7 1015.3 0.0
20/03:00am 14.5 8.7 -4.2 27 7.2 SW 17 20 9 11 1015.6 1015.2 0.0
20/02:30am 15.0 9.2 -4.3 26 7.5 SW 17 22 9 12 1015.6 1015.2 0.0
20/02:00am 15.8 10.4 -4.2 25 7.9 SW 15 20 8 11 1015.5 1015.1 0.0
20/01:30am 16.9 10.2 -3.8 24 8.3 SW 22 30 12 16 1015.3 1014.8 0.0
20/01:00am 17.7 10.7 -3.7 23 8.7 SW 24 32 13 17 1015.4 1015.0 0.0
20/12:30am 18.4 11.8 -3.7 22 9.0 SW 22 32 12 17 1015.3 1014.8 0.0
20/12:00am 18.6 13.3 -3.5 22 9.1 SW 15 20 8 11 1015.0 1014.5 0.0
 
Date/Time
EST
Temp
°C
App
Temp
°C
Dew
Point
°C
Rel
Hum
%
Delta-T
°C
Wind Press
QNH
hPa
Press
MSL
hPa
Rain since
9am
mm
Dir  Spd
km/h
Gust
km/h
Spd
kts
Gust
kts
19/11:30pm 19.1 13.8 -3.7 21 9.4 SW 15 20 8 11 1014.8 1014.3 0.0
19/11:00pm 19.7 14.0 -3.9 20 9.7 SW 17 24 9 13 1014.7 1014.2 0.0
19/10:30pm 20.6 13.6 -3.8 19 10.1 SW 24 37 13 20 1014.6 1014.1 0.0
19/10:00pm 21.1 14.4 -4.1 18 10.5 SW 22 32 12 17 1014.3 1013.8 0.0
19/09:30pm 21.0 15.0 -6.6 15 10.9 SW 17 19 9 10 1014.0 1013.5 0.0
19/09:00pm 22.1 16.0 -7.6 13 11.6 SW 17 19 9 10 1013.8 1013.3 0.0
19/08:30pm 22.3 16.9 -8.4 12 11.9 WSW 13 17 7 9 1013.7 1013.2 0.0
19/08:00pm 23.7 17.2 -8.5 11 12.6 SW 19 28 10 15 1013.2 1012.7 0.0
19/07:30pm 23.7 17.1 -9.7 10 12.8 SW 19 24 10 13 1012.8 1012.3 0.0
19/07:00pm 24.8 17.3 -8.8 10 13.2 SW 24 32 13 17 1012.4 1011.9 0.0
19/06:30pm 25.8 17.9 -9.4 9 13.8 SSW 26 35 14 19 1011.6 1011.1 0.0
19/06:18pm 26.6 19.5 -8.8 9 14.2 WSW 22 35 12 19 1011.4 1010.9 0.0
19/06:00pm 26.9 22.0 -3.8 13 13.5 W 13 17 7 9 1010.9 1010.3 0.0
19/05:30pm 29.1 23.5 -3.2 12 14.6 WSW 17 24 9 13 1010.4 1009.9 0.0
19/05:00pm 29.7 22.8 -2.7 12 14.9 W 24 32 13 17 1010.3 1009.8 0.0
19/04:30pm 29.8 22.9 -2.6 12 14.9 W 24 33 13 18 1010.1 1009.6 0.0
19/04:00pm 30.6 24.2 -2.0 12 15.3 WNW 22 39 12 21 1010.0 1009.5 0.0
19/03:30pm 31.4 23.1 -1.4 12 15.6 W 32 46 17 25 1010.2 1009.7 0.0
19/03:00pm 31.2 23.8 -0.5 13 15.3 WNW 28 37 15 20 1010.4 1009.9 0.0
19/02:30pm 31.4 24.7 3.4 17 14.4 WNW 28 43 15 23 1010.5 1010.0 0.0
19/02:00pm 31.3 24.2 1.6 15 14.9 WNW 28 44 15 24 1011.1 1010.6 0.0
19/01:30pm 31.5 24.9 4.3 18 14.2 W 28 41 15 22 1011.5 1011.0 0.0
19/01:00pm 30.3 24.8 7.5 24 12.5 NW 26 37 14 20 1012.0 1011.5 0.0
19/12:30pm 29.4 24.9 8.5 27 11.6 NW 22 35 12 19 1012.3 1011.8 0.0
19/12:00pm 29.1 24.6 8.7 28 11.3 NW 22 33 12 18 1013.0 1012.5 0.0

Other Formats:

Comma delimited format used in spreadsheet applications
http://www.bom.gov.au/fwo/IDQ60801/IDQ60801.94517.axf

JavaScript Object Notation format (JSON) in row-major order
http://www.bom.gov.au/fwo/IDQ60801/IDQ60801.94517.json